Time;durP1;ratioP1;P1;durP2;ratioP2;P2;SDS_P1;SDS_P2;PMS_P1;PMS_P2;Temp;Humidity;BMP_temperature;BMP_pressure;BME280_temperature;BME280_humidity;BME280_pressure;Samples;Min_cycle;Max_cycle;Signal;HPM_P1;HPM_P2
2023/03/23 00:01:19;;;;;;;1.80;1.30;;;;;;;15.71;48.61;98184.34;5091889;28;41781;-80
2023/03/23 00:03:48;;;;;;;2.10;1.30;;;;;;;15.73;48.36;98186.88;5089693;28;43217;-79
2023/03/23 00:06:17;;;;;;;1.90;1.30;;;;;;;15.74;48.07;98188.56;5093070;28;39903;-78
2023/03/23 00:08:49;;;;;;;2.77;1.47;;;;;;;15.73;48.56;98184.19;5093438;28;41679;-78
2023/03/23 00:11:20;;;;;;;1.40;1.23;;;;;;;15.77;48.36;98182.94;5075105;28;41930;-78
2023/03/23 00:13:51;;;;;;;2.13;1.20;;;;;;;15.79;48.81;98186.31;5092222;28;41282;-82
2023/03/23 00:16:30;;;;;;;2.03;1.33;;;;;;;15.78;48.75;98182.78;5074663;28;38591;-80
2023/03/23 00:18:59;;;;;;;2.03;1.33;;;;;;;15.78;48.64;98179.28;5088895;28;42593;-78
2023/03/23 00:21:34;;;;;;;1.77;1.50;;;;;;;15.80;48.73;98177.31;5074542;28;43121;-79
2023/03/23 00:24:04;;;;;;;1.90;1.40;;;;;;;15.79;48.99;98165.78;5091868;28;41562;-80
2023/03/23 00:26:33;;;;;;;2.10;1.30;;;;;;;15.66;48.98;98154.59;5092495;28;40648;-79
2023/03/23 00:29:05;;;;;;;2.43;1.50;;;;;;;15.79;49.19;98164.94;5091776;28;42846;-81
2023/03/23 00:31:35;;;;;;;1.50;1.20;;;;;;;15.64;48.97;98147.72;5088859;28;42511;-80
2023/03/23 00:34:05;;;;;;;3.53;1.40;;;;;;;15.77;49.07;98166.91;5088609;28;43274;-79
2023/03/23 00:36:35;;;;;;;2.10;1.50;;;;;;;15.77;49.04;98169.59;5074920;28;38942;-79
2023/03/23 00:39:04;;;;;;;1.77;1.40;;;;;;;15.78;49.25;98165.94;5091422;28;41668;-80
2023/03/23 00:41:36;;;;;;;1.53;1.43;;;;;;;15.75;49.61;98166.22;5091544;28;42678;-80
2023/03/23 00:44:08;;;;;;;1.50;1.40;;;;;;;15.74;49.49;98157.38;5088520;28;42132;-80
2023/03/23 00:46:44;;;;;;;1.93;1.40;;;;;;;15.73;49.36;98152.16;5088820;28;40108;-79
2023/03/23 00:49:13;;;;;;;3.50;1.37;;;;;;;15.73;49.86;98150.34;5088372;28;41713;-80
2023/03/23 00:51:42;;;;;;;4.07;1.30;;;;;;;15.72;49.61;98153.16;5074410;28;42050;-78
2023/03/23 00:54:10;;;;;;;1.53;1.40;;;;;;;15.70;49.74;98145.28;5091208;28;41886;-78
2023/03/23 00:56:38;;;;;;;2.40;1.50;;;;;;;15.72;49.99;98142.47;5074424;28;38815;-83
2023/03/23 00:59:08;;;;;;;2.60;1.40;;;;;;;15.70;49.71;98144.47;5091057;28;41740;-82
2023/03/23 01:01:36;;;;;;;3.07;1.70;;;;;;;15.69;50.02;98148.13;5074347;28;41853;-81
2023/03/23 01:04:05;;;;;;;3.17;1.83;;;;;;;15.67;49.62;98155.44;5074128;28;41106;-78
2023/03/23 01:06:35;;;;;;;1.87;1.40;;;;;;;15.68;49.73;98141.09;5074352;28;38727;-78
2023/03/23 01:09:04;;;;;;;1.60;1.50;;;;;;;15.63;49.90;98135.34;5074661;28;40475;-78
2023/03/23 01:11:32;;;;;;;1.93;1.60;;;;;;;15.62;49.78;98128.31;5091445;28;43708;-80
2023/03/23 01:13:59;;;;;;;1.33;1.17;;;;;;;15.33;49.71;98089.19;5074347;28;41413;-80
2023/03/23 01:16:29;;;;;;;1.70;1.33;;;;;;;15.66;49.97;98137.75;5074010;28;39821;-80
2023/03/23 01:18:57;;;;;;;1.87;1.30;;;;;;;15.60;49.73;98131.13;5074212;28;40986;-76
2023/03/23 01:21:26;;;;;;;1.20;1.10;;;;;;;15.50;49.93;98121.44;5074145;28;41838;-78
2023/03/23 01:23:53;;;;;;;1.87;1.60;;;;;;;15.62;49.69;98133.66;5079538;28;41251;-77
2023/03/23 01:26:24;;;;;;;1.97;1.33;;;;;;;15.62;49.62;98125.66;5102208;28;39785;-78
2023/03/23 01:28:53;;;;;;;3.10;1.43;;;;;;;15.59;49.56;98123.28;5089280;28;41495;-81
2023/03/23 01:31:22;;;;;;;1.40;1.30;;;;;;;15.60;49.69;98122.28;5092029;28;42778;-80
2023/03/23 01:33:52;;;;;;;2.20;1.30;;;;;;;15.59;49.67;98109.91;5074283;28;41411;-79
2023/03/23 01:36:24;;;;;;;1.43;1.33;;;;;;;15.58;49.84;98108.28;5073483;28;38894;-86
2023/03/23 01:38:51;;;;;;;1.40;1.13;;;;;;;15.58;49.84;98105.59;5090951;28;43088;-80
2023/03/23 01:41:20;;;;;;;1.73;1.30;;;;;;;15.56;49.72;98103.06;5092268;28;43561;-82
2023/03/23 01:44:04;;;;;;;1.30;1.20;;;;;;;15.55;49.93;98103.22;5090939;28;42257;-81
2023/03/23 01:46:41;;;;;;;2.10;1.30;;;;;;;15.52;49.66;98098.97;5090966;28;39951;-78
2023/03/23 01:49:16;;;;;;;1.77;1.50;;;;;;;15.54;49.59;98093.50;5073785;28;41542;-81
2023/03/23 01:51:49;;;;;;;2.10;1.40;;;;;;;15.52;49.50;98092.78;5073774;28;41506;-84
2023/03/23 01:54:20;;;;;;;1.63;1.40;;;;;;;15.51;49.31;98088.44;5074285;28;42166;-80
2023/03/23 01:56:54;;;;;;;1.70;1.30;;;;;;;15.51;49.58;98072.44;5074044;28;38957;-77
2023/03/23 01:59:25;;;;;;;1.80;1.30;;;;;;;15.48;49.29;98081.56;5088084;28;41653;-80
2023/03/23 02:02:10;;;;;;;2.07;1.73;;;;;;;15.36;49.75;98069.38;5073818;28;41537;-80
2023/03/23 02:04:41;;;;;;;1.20;1.10;;;;;;;15.40;49.97;98074.28;5090591;28;41967;-82
2023/03/23 02:07:09;;;;;;;3.20;1.70;;;;;;;15.35;49.74;98078.38;5087873;28;40185;-79
2023/03/23 02:09:37;;;;;;;1.10;1.00;;;;;;;15.30;49.94;98081.50;5090454;28;42671;-79
2023/03/23 02:12:06;;;;;;;2.17;1.37;;;;;;;15.28;49.95;98083.44;5073337;28;42658;-77
2023/03/23 02:14:35;;;;;;;2.63;1.40;;;;;;;15.21;50.06;98069.00;5090433;28;43211;-82
2023/03/23 02:17:08;;;;;;;2.07;1.03;;;;;;;15.28;50.18;98079.94;5073014;28;38847;-79
2023/03/23 02:20:17;;;;;;;1.40;1.27;;;;;;;15.26;49.90;98077.41;5088790;28;41713;-82
2023/03/23 02:23:09;;;;;;;1.70;1.43;;;;;;;15.26;49.98;98077.41;5090947;28;42746;-80
2023/03/23 02:26:06;;;;;;;1.37;1.27;;;;;;;15.23;50.19;98080.38;5070080;28;42188;-82
2023/03/23 02:29:04;;;;;;;2.60;1.30;;;;;;;15.22;50.44;98065.34;5072984;28;39861;-80
2023/03/23 02:32:05;;;;;;;1.53;1.23;;;;;;;15.21;50.27;98066.31;5060973;28;41642;-85
2023/03/23 02:34:40;;;;;;;2.00;1.40;;;;;;;15.19;50.06;98076.31;5072365;28;41741;-78
2023/03/23 02:37:13;;;;;;;1.97;1.67;;;;;;;15.15;50.03;98066.91;5076779;28;41333;-80
2023/03/23 02:39:46;;;;;;;1.23;1.13;;;;;;;15.17;50.20;98072.94;5076930;28;39027;-77
2023/03/23 02:42:21;;;;;;;2.30;1.13;;;;;;;15.15;50.13;98060.75;5077058;28;41379;-80
2023/03/23 02:44:51;;;;;;;1.83;1.30;;;;;;;15.11;49.93;98054.84;5076154;28;41864;-76
2023/03/23 02:47:24;;;;;;;1.13;0.90;;;;;;;15.13;50.06;98060.03;5076880;28;42070;-80
2023/03/23 02:49:56;;;;;;;1.20;1.10;;;;;;;15.13;49.85;98062.72;5076482;28;39977;-80
2023/03/23 02:52:28;;;;;;;2.77;1.33;;;;;;;15.12;49.55;98059.19;5090580;28;41921;-79
2023/03/23 02:54:59;;;;;;;2.20;1.10;;;;;;;15.13;49.93;98060.03;5076355;28;42182;-77
2023/03/23 02:57:29;;;;;;;1.30;1.03;;;;;;;15.09;49.82;98062.97;5076966;28;41680;-78
2023/03/23 02:59:59;;;;;;;1.90;0.93;;;;;;;15.06;49.75;98059.78;5076493;28;39201;-83
2023/03/23 03:02:29;;;;;;;2.57;1.13;;;;;;;15.00;49.71;98055.84;5076859;28;41314;-78
2023/03/23 03:05:09;;;;;;;2.47;1.30;;;;;;;14.87;49.71;98028.66;5076490;28;42944;-81
2023/03/23 03:07:49;;;;;;;1.47;1.10;;;;;;;14.96;49.68;98049.13;5090263;28;42311;-80
2023/03/23 03:10:26;;;;;;;1.23;1.07;;;;;;;14.90;49.73;98038.19;5091953;28;40118;-80
2023/03/23 03:13:01;;;;;;;2.93;1.50;;;;;;;14.94;50.10;98058.25;5090198;28;41765;-78
2023/03/23 03:15:35;;;;;;;1.70;1.13;;;;;;;14.65;50.41;98007.66;5092096;28;43390;-80
2023/03/23 03:18:11;;;;;;;1.43;0.90;;;;;;;14.92;50.41;98052.22;5089979;28;42318;-77
2023/03/23 03:20:46;;;;;;;1.50;1.00;;;;;;;14.93;50.08;98053.91;5091949;28;40030;-82
2023/03/23 03:23:17;;;;;;;1.60;1.00;;;;;;;14.99;49.93;98061.31;5090092;28;41917;-81
2023/03/23 03:25:48;;;;;;;1.80;1.30;;;;;;;15.07;49.75;98067.66;5091710;28;42763;-78
2023/03/23 03:28:22;;;;;;;1.33;1.00;;;;;;;15.08;49.83;98063.97;5090022;28;42562;-77
2023/03/23 03:30:56;;;;;;;1.03;0.97;;;;;;;15.03;49.80;98042.25;5075986;28;39084;-78
2023/03/23 03:33:26;;;;;;;1.27;1.17;;;;;;;15.13;49.74;98050.22;5089896;28;42769;-79
2023/03/23 03:35:59;;;;;;;1.60;1.00;;;;;;;15.15;49.69;98052.75;5092044;28;43775;-78
2023/03/23 03:38:29;;;;;;;1.10;0.97;;;;;;;15.14;49.54;98046.56;5089368;28;41993;-81
2023/03/23 03:40:57;;;;;;;1.00;0.90;;;;;;;15.12;49.72;98048.53;5092036;28;39874;-78
2023/03/23 03:43:25;;;;;;;0.90;0.80;;;;;;;15.11;49.58;98046.84;5075694;28;40900;-78
2023/03/23 03:45:53;;;;;;;1.20;0.87;;;;;;;15.07;49.54;98048.13;5074845;28;41768;-79
2023/03/23 03:48:21;;;;;;;1.20;1.10;;;;;;;15.08;49.55;98045.28;5092954;28;43313;-80
2023/03/23 03:50:49;;;;;;;1.30;1.20;;;;;;;15.05;49.91;98042.09;5092827;28;39886;-79
2023/03/23 03:53:18;;;;;;;1.10;1.00;;;;;;;15.01;50.03;98035.38;5092949;28;42734;-81
2023/03/23 03:55:48;;;;;;;1.13;1.00;;;;;;;15.00;50.33;98036.34;5075412;28;41558;-81
2023/03/23 03:58:17;;;;;;;4.50;1.00;;;;;;;14.98;50.07;98040.97;5075969;28;41497;-80
2023/03/23 04:01:09;;;;;;;1.17;1.07;;;;;;;15.00;50.13;98039.00;5091659;28;40182;-80
2023/03/23 04:03:40;;;;;;;0.80;0.80;;;;;;;15.00;49.94;98050.53;5075647;28;40927;-78
2023/03/23 04:06:14;;;;;;;1.10;0.90;;;;;;;15.03;50.23;98044.91;5075830;28;41948;-80
2023/03/23 04:08:44;;;;;;;0.97;0.90;;;;;;;15.04;49.93;98051.09;5093383;28;42017;-80
2023/03/23 04:11:14;;;;;;;2.20;1.10;;;;;;;15.03;50.07;98039.56;5075209;28;39037;-79
2023/03/23 04:13:43;;;;;;;1.10;1.00;;;;;;;14.98;49.99;98035.66;5075627;28;40608;-79
2023/03/23 04:16:22;;;;;;;1.03;0.93;;;;;;;15.02;49.94;98045.03;5092134;28;42970;-79
2023/03/23 04:18:51;;;;;;;1.43;1.27;;;;;;;15.00;49.92;98050.53;5094977;28;43172;-77
2023/03/23 04:21:19;;;;;;;1.40;0.97;;;;;;;14.99;50.28;98048.84;5085542;28;39046;-77
2023/03/23 04:23:53;;;;;;;1.10;1.00;;;;;;;14.98;50.37;98043.63;5078801;28;40447;-79
2023/03/23 04:26:22;;;;;;;1.53;1.00;;;;;;;14.96;50.13;98043.78;5075253;28;41680;-82
2023/03/23 04:28:51;;;;;;;2.70;1.07;;;;;;;14.85;50.45;98025.28;5075652;28;41483;-79
2023/03/23 04:31:44;;;;;;;0.80;0.80;;;;;;;14.94;50.23;98042.25;5093138;28;40610;-78
2023/03/23 04:34:35;;;;;;;1.93;1.10;;;;;;;14.93;50.19;98051.25;5090030;28;41546;-78
2023/03/23 04:37:03;;;;;;;1.43;1.00;;;;;;;14.81;50.38;98033.72;5074898;28;41479;-78
2023/03/23 04:39:34;;;;;;;1.70;0.83;;;;;;;14.91;51.05;98055.88;5091764;28;42334;-80
2023/03/23 04:42:05;;;;;;;1.33;0.90;;;;;;;14.91;50.94;98045.22;5088884;28;40173;-78
2023/03/23 04:44:56;;;;;;;1.17;1.07;;;;;;;14.88;51.14;98040.16;5086137;28;41011;-78
2023/03/23 04:47:39;;;;;;;0.97;0.90;;;;;;;14.85;50.88;98045.75;5088686;28;42910;-78
2023/03/23 04:50:13;;;;;;;1.87;1.20;;;;;;;14.84;51.05;98038.75;5089540;28;42252;-83
2023/03/23 04:52:44;;;;;;;0.93;0.93;;;;;;;14.83;50.86;98048.59;5075074;28;38969;-80
2023/03/23 04:55:16;;;;;;;2.63;1.20;;;;;;;14.79;51.33;98041.84;5074589;28;41822;-78
2023/03/23 04:57:48;;;;;;;1.93;1.17;;;;;;;14.77;51.27;98042.97;5074497;28;41797;-81
2023/03/23 05:00:43;;;;;;;1.20;1.10;;;;;;;14.74;51.44;98028.09;5092130;28;42114;-81
2023/03/23 05:03:16;;;;;;;2.13;1.20;;;;;;;14.70;50.97;98035.56;5091487;28;40112;-80
2023/03/23 05:05:51;;;;;;;1.03;0.93;;;;;;;14.72;50.81;98036.25;5074821;28;41934;-79
2023/03/23 05:08:21;;;;;;;0.97;0.80;;;;;;;14.71;50.92;98037.22;5088589;28;42491;-80
2023/03/23 05:11:08;;;;;;;1.10;1.00;;;;;;;14.72;51.34;98040.72;5074557;28;41456;-81
2023/03/23 05:13:44;;;;;;;1.00;0.80;;;;;;;14.71;51.33;98047.88;5074494;28;40009;-81
2023/03/23 05:16:12;;;;;;;2.13;1.30;;;;;;;14.69;51.34;98052.53;5074046;28;43241;-79
2023/03/23 05:18:42;;;;;;;0.80;0.73;;;;;;;14.69;51.16;98057.03;5074372;28;41125;-83
2023/03/23 05:21:13;;;;;;;1.57;0.90;;;;;;;14.67;51.37;98053.66;5090669;28;43050;-79
2023/03/23 05:23:45;;;;;;;2.27;0.90;;;;;;;14.63;51.79;98053.09;5088295;28;39925;-82
2023/03/23 05:26:21;;;;;;;1.60;1.30;;;;;;;14.60;51.75;98045.38;5074122;28;40980;-83
2023/03/23 05:29:00;;;;;;;3.10;1.30;;;;;;;14.52;52.60;98044.38;5074495;28;41831;-81
2023/03/23 05:31:50;;;;;;;1.47;1.30;;;;;;;14.48;53.18;98043.81;5091685;28;42827;-78
2023/03/23 05:34:18;;;;;;;1.40;1.30;;;;;;;14.40;53.69;98043.69;5074876;28;39154;-79
2023/03/23 05:36:52;;;;;;;1.60;1.20;;;;;;;14.32;54.04;98036.38;5091897;28;41343;-78
2023/03/23 05:39:39;;;;;;;1.80;1.33;;;;;;;14.24;54.40;98046.03;5089898;28;43550;-78
2023/03/23 05:42:28;;;;;;;1.80;1.20;;;;;;;14.15;55.38;98036.19;5091403;28;42653;-77
2023/03/23 05:45:12;;;;;;;3.93;1.37;;;;;;;14.10;55.94;98035.75;5074059;28;38986;-78
2023/03/23 05:47:41;;;;;;;2.37;1.47;;;;;;;14.06;57.12;98042.38;5090925;28;42726;-81
2023/03/23 05:50:13;;;;;;;1.77;1.50;;;;;;;13.94;62.06;98017.69;5073958;28;41457;-77
2023/03/23 05:52:42;;;;;;;1.77;1.63;;;;;;;13.83;61.23;98031.94;5090877;28;43206;-79
2023/03/23 05:55:14;;;;;;;2.40;1.60;;;;;;;13.80;60.40;98042.03;5090625;28;40597;-80
2023/03/23 05:57:45;;;;;;;1.40;1.20;;;;;;;13.80;60.33;98053.50;5091045;28;41852;-78
2023/03/23 06:00:34;;;;;;;2.00;1.50;;;;;;;13.80;61.97;98048.19;5090290;28;42923;-77
2023/03/23 06:03:18;;;;;;;1.50;1.40;;;;;;;13.76;61.02;98051.25;5075699;28;41126;-78
2023/03/23 06:05:56;;;;;;;2.37;1.50;;;;;;;13.77;61.29;98048.44;5093705;28;40084;-78
2023/03/23 06:08:31;;;;;;;1.67;1.53;;;;;;;13.73;61.72;98060.34;5077246;28;40691;-80
2023/03/23 06:10:59;;;;;;;2.97;1.57;;;;;;;13.71;62.06;98061.47;5093857;28;42713;-78
2023/03/23 06:13:30;;;;;;;2.70;1.50;;;;;;;13.72;62.05;98063.16;5077001;28;42007;-80
2023/03/23 06:16:07;;;;;;;1.97;1.40;;;;;;;13.73;63.00;98072.78;5077170;28;38568;-76
2023/03/23 06:18:53;;;;;;;2.70;1.50;;;;;;;13.72;64.17;98050.69;5091271;28;42844;-77
2023/03/23 06:21:27;;;;;;;2.50;1.50;;;;;;;13.67;63.59;98058.22;5076469;28;41813;-79
2023/03/23 06:24:14;;;;;;;2.20;1.27;;;;;;;13.66;63.59;98064.53;5093899;28;41048;-79
2023/03/23 06:26:42;;;;;;;1.63;1.53;;;;;;;13.65;63.65;98063.69;5076807;28;38637;-78
2023/03/23 06:29:18;;;;;;;2.30;1.57;;;;;;;13.59;63.82;98053.59;5076991;28;41013;-79
2023/03/23 06:31:54;;;;;;;2.87;1.60;;;;;;;13.71;63.85;98064.13;5090644;28;42695;-79
2023/03/23 06:34:23;;;;;;;2.77;1.47;;;;;;;13.70;64.95;98068.59;5077100;28;41502;-79
2023/03/23 06:37:24;;;;;;;1.70;1.60;;;;;;;13.63;65.73;98035.50;5082465;28;38937;-79
2023/03/23 06:40:09;;;;;;;3.83;2.37;;;;;;;13.72;67.76;98049.84;5091806;28;43096;-79
2023/03/23 06:42:40;;;;;;;2.23;1.80;;;;;;;13.75;66.94;98061.03;5076444;28;42020;-79
2023/03/23 06:45:28;;;;;;;4.20;2.60;;;;;;;13.73;67.33;98057.66;5093514;28;42960;-79
2023/03/23 06:48:34;;;;;;;2.60;2.20;;;;;;;13.89;66.66;98081.97;5056072;28;38903;-78
2023/03/23 06:51:02;;;;;;;3.90;2.13;;;;;;;13.97;66.18;98091.94;5055438;28;42603;-78
2023/03/23 06:53:31;;;;;;;2.90;1.83;;;;;;;14.00;66.95;98089.00;5055701;28;41965;-78
2023/03/23 06:56:01;;;;;;;1.73;1.60;;;;;;;14.01;66.29;98101.34;5093184;28;42270;-78
2023/03/23 06:58:31;;;;;;;2.07;1.53;;;;;;;14.01;66.27;98104.84;5093314;28;39989;-79
2023/03/23 07:01:00;;;;;;;1.57;1.30;;;;;;;14.01;65.71;98109.31;5093558;28;42692;-80
2023/03/23 07:03:37;;;;;;;2.30;2.10;;;;;;;14.07;65.67;98115.94;5076307;28;41973;-79
2023/03/23 07:06:06;;;;;;;2.53;1.80;;;;;;;14.10;65.04;98107.66;5076153;28;41044;-79
2023/03/23 07:08:38;;;;;;;3.20;1.73;;;;;;;14.18;64.99;98116.66;5093282;28;40829;-79
2023/03/23 07:11:09;;;;;;;1.67;1.50;;;;;;;14.06;64.70;98091.13;5076166;28;40901;-79
2023/03/23 07:13:37;;;;;;;1.80;1.53;;;;;;;14.18;64.07;98094.53;5077495;28;42836;-80
2023/03/23 07:16:09;;;;;;;3.67;1.83;;;;;;;14.37;63.82;98107.84;5111824;28;43816;-79
2023/03/23 07:18:37;;;;;;;1.70;1.40;;;;;;;14.52;63.00;98119.00;5098302;28;41025;-81
2023/03/23 07:21:07;;;;;;;3.97;1.67;;;;;;;14.53;62.10;98116.19;5076188;28;40577;-80
2023/03/23 07:23:35;;;;;;;1.47;1.37;;;;;;;14.67;61.89;98134.44;5093506;28;43688;-80
2023/03/23 07:26:07;;;;;;;1.40;1.13;;;;;;;14.63;62.13;98122.38;5076266;28;41297;-80
2023/03/23 07:28:41;;;;;;;2.43;1.10;;;;;;;14.74;60.52;98146.22;5076879;28;39518;-80
2023/03/23 07:31:30;;;;;;;2.37;1.20;;;;;;;14.79;60.59;98137.81;5092690;28;41723;-81
2023/03/23 07:33:59;;;;;;;1.80;1.30;;;;;;;14.89;59.73;98149.31;5076379;28;41608;-81
2023/03/23 07:36:37;;;;;;;1.10;1.00;;;;;;;14.82;58.89;98147.38;5076951;28;42397;-79
2023/03/23 07:39:07;;;;;;;2.73;1.30;;;;;;;14.91;58.86;98146.53;5093107;28;39470;-80
2023/03/23 07:41:35;;;;;;;1.00;0.90;;;;;;;14.99;58.18;98149.31;5093233;28;42159;-79
2023/03/23 07:44:15;;;;;;;1.37;1.27;;;;;;;15.06;58.01;98134.44;5090323;28;43606;-81
2023/03/23 07:46:46;;;;;;;1.30;1.00;;;;;;;15.14;57.58;98147.06;5076366;28;41131;-80
2023/03/23 07:49:17;;;;;;;0.87;0.83;;;;;;;15.23;57.21;98138.19;5090024;28;40109;-80
2023/03/23 07:52:02;;;;;;;1.40;1.20;;;;;;;15.35;57.10;98155.72;5074735;28;40350;-85
2023/03/23 07:54:30;;;;;;;1.47;1.37;;;;;;;15.45;57.44;98145.91;5092948;28;43427;-80
2023/03/23 07:57:09;;;;;;;1.43;1.27;;;;;;;15.53;56.71;98163.84;5075829;28;41357;-80
2023/03/23 07:59:41;;;;;;;1.57;1.00;;;;;;;15.53;56.79;98163.84;5090781;28;40094;-80
2023/03/23 08:02:12;;;;;;;1.47;1.30;;;;;;;15.66;57.26;98164.44;5092622;28;41717;-81
2023/03/23 08:04:47;;;;;;;2.13;1.30;;;;;;;15.70;56.48;98165.84;5092817;28;41625;-80
2023/03/23 08:07:17;;;;;;;0.90;0.90;;;;;;;15.71;56.70;98162.16;5092850;28;42293;-81
2023/03/23 08:10:26;;;;;;;1.50;1.10;;;;;;;15.73;57.34;98166.34;5012673;28;38618;-82
2023/03/23 08:13:12;;;;;;;1.27;1.10;;;;;;;15.56;59.01;98152.94;5015038;28;40615;-80
2023/03/23 08:16:03;;;;;;;1.33;1.07;;;;;;;15.37;60.66;98157.28;5054722;28;42723;-81
2023/03/23 08:19:11;;;;;;;2.00;1.20;;;;;;;15.21;61.59;98158.84;5049088;28;41004;-81
2023/03/23 08:21:52;;;;;;;1.87;1.10;;;;;;;15.04;63.03;98161.25;5020067;28;38875;-80
2023/03/23 08:24:42;;;;;;;1.00;0.90;;;;;;;14.93;63.99;98157.88;5072415;28;42061;-80
2023/03/23 08:27:44;;;;;;;1.37;1.20;;;;;;;14.93;63.85;98165.88;5072093;28;42802;-80
2023/03/23 08:30:33;;;;;;;1.30;1.10;;;;;;;14.81;64.24;98169.66;5077505;28;42224;-80
2023/03/23 08:33:40;;;;;;;1.77;1.30;;;;;;;14.77;65.43;98157.59;5034636;28;40230;-80
2023/03/23 08:36:43;;;;;;;1.37;1.13;;;;;;;14.55;66.79;98156.88;5033885;28;41944;-81
2023/03/23 08:39:14;;;;;;;1.40;1.30;;;;;;;14.56;67.41;98174.53;5075403;28;42015;-80
2023/03/23 08:42:13;;;;;;;2.17;1.33;;;;;;;14.50;68.79;98172.41;5069267;28;43342;-80
2023/03/23 08:44:53;;;;;;;1.40;1.20;;;;;;;14.36;69.22;98162.09;5092178;28;38980;-78
2023/03/23 08:47:51;;;;;;;1.93;1.30;;;;;;;14.47;69.57;98177.16;5075864;28;42366;-81
2023/03/23 08:50:45;;;;;;;1.30;1.20;;;;;;;14.46;71.01;98168.34;5090571;28;42783;-81
2023/03/23 08:53:30;;;;;;;1.50;1.20;;;;;;;14.48;70.67;98178.84;5088711;28;42274;-79
2023/03/23 08:56:23;;;;;;;1.57;1.10;;;;;;;14.52;70.79;98178.44;5092619;28;39173;-79
2023/03/23 08:59:06;;;;;;;1.83;1.10;;;;;;;14.58;70.17;98177.91;5091759;28;40834;-81
2023/03/23 09:01:56;;;;;;;1.20;1.10;;;;;;;14.67;70.48;98171.75;5088271;28;42711;-80
2023/03/23 09:04:44;;;;;;;1.97;1.30;;;;;;;14.76;69.92;98175.41;5092051;28;42332;-78
2023/03/23 09:07:27;;;;;;;2.50;1.10;;;;;;;14.93;69.12;98171.22;5088620;28;40047;-81
2023/03/23 09:09:56;;;;;;;1.80;1.50;;;;;;;15.05;68.43;98183.44;5091307;28;42493;-80
2023/03/23 09:12:24;;;;;;;4.33;1.40;;;;;;;15.18;67.25;98186.66;5091268;28;42891;-81
2023/03/23 09:14:52;;;;;;;2.63;1.90;;;;;;;15.20;66.07;98184.69;5073950;28;42206;-80
2023/03/23 09:17:20;;;;;;;1.67;1.57;;;;;;;15.33;65.39;98195.88;5091467;28;40196;-80
2023/03/23 09:19:48;;;;;;;1.23;1.13;;;;;;;15.30;65.06;98204.19;5073550;28;42084;-80
2023/03/23 09:22:19;;;;;;;1.30;1.20;;;;;;;15.35;65.20;98214.44;5070691;28;43100;-80
2023/03/23 09:24:47;;;;;;;1.40;1.30;;;;;;;15.38;64.80;98212.31;5070806;28;42344;-83
2023/03/23 09:27:17;;;;;;;1.73;1.33;;;;;;;15.28;64.68;98187.50;5091241;28;40502;-80
2023/03/23 09:29:46;;;;;;;1.20;1.07;;;;;;;15.46;64.21;98211.59;5091091;28;43547;-80
2023/03/23 09:32:14;;;;;;;2.20;1.13;;;;;;;15.53;63.99;98219.91;5091044;28;43358;-80
2023/03/23 09:34:42;;;;;;;1.50;0.90;;;;;;;15.77;64.11;98220.31;5090810;28;41521;-81
2023/03/23 09:37:12;;;;;;;1.30;1.10;;;;;;;15.97;62.32;98243.31;5075324;28;39122;-82
2023/03/23 09:39:40;;;;;;;1.30;1.20;;;;;;;16.04;62.24;98238.25;5077805;28;41790;-81
2023/03/23 09:42:33;;;;;;;2.20;1.33;;;;;;;16.17;62.20;98244.94;5094070;28;41756;-81
2023/03/23 09:45:11;;;;;;;3.23;1.20;;;;;;;16.35;61.41;98252.19;5091294;28;42254;-80
2023/03/23 09:47:46;;;;;;;2.37;1.30;;;;;;;16.49;61.14;98254.38;5095007;28;39105;-79
2023/03/23 09:50:18;;;;;;;1.60;1.43;;;;;;;16.57;61.05;98259.81;5093803;28;41494;-82
2023/03/23 09:52:54;;;;;;;2.90;1.30;;;;;;;16.55;60.25;98253.81;5077952;28;41746;-82
2023/03/23 09:55:23;;;;;;;1.60;1.10;;;;;;;16.52;60.79;98264.78;5093346;28;42355;-79
2023/03/23 09:57:57;;;;;;;1.97;1.30;;;;;;;16.38;60.65;98257.25;5094302;28;38533;-81
2023/03/23 10:00:31;;;;;;;2.73;1.57;;;;;;;16.37;60.81;98274.25;5077114;28;40770;-81
2023/03/23 10:03:07;;;;;;;1.10;1.00;;;;;;;16.37;61.54;98271.59;5091285;28;43526;-81
2023/03/23 10:05:37;;;;;;;1.57;1.10;;;;;;;16.34;61.39;98267.38;5094296;28;43846;-80
2023/03/23 10:08:12;;;;;;;2.00;1.20;;;;;;;16.47;60.52;98272.38;5095891;28;39491;-81
2023/03/23 10:11:01;;;;;;;1.40;1.30;;;;;;;16.50;60.21;98258.72;5095429;28;40464;-81
2023/03/23 10:13:43;;;;;;;1.43;1.13;;;;;;;16.65;60.22;98275.16;5099554;28;43107;-82
2023/03/23 10:16:30;;;;;;;1.03;0.93;;;;;;;16.70;60.04;98273.72;5075567;28;41036;-81
2023/03/23 10:19:09;;;;;;;1.43;1.20;;;;;;;16.72;59.60;98287.78;5089716;28;39994;-82
2023/03/23 10:21:42;;;;;;;0.93;0.83;;;;;;;16.65;59.11;98277.84;5075783;28;40692;-81
2023/03/23 10:24:13;;;;;;;1.60;1.00;;;;;;;16.70;59.21;98292.44;5090706;28;42926;-80
2023/03/23 10:26:49;;;;;;;1.80;1.30;;;;;;;16.71;59.71;98285.25;5075227;28;41180;-81
2023/03/23 10:29:22;;;;;;;0.90;0.90;;;;;;;16.73;59.27;98277.94;5089529;28;40175;-82
2023/03/23 10:31:55;;;;;;;0.93;0.93;;;;;;;16.83;59.50;98276.88;5075042;28;41720;-80
2023/03/23 10:34:29;;;;;;;1.73;1.10;;;;;;;17.00;58.72;98274.41;5075454;28;43047;-81
2023/03/23 10:37:04;;;;;;;1.80;1.20;;;;;;;17.10;58.24;98253.78;5088825;28;42554;-81
2023/03/23 10:39:38;;;;;;;2.67;1.10;;;;;;;17.43;58.33;98271.81;5089555;28;39796;-81
2023/03/23 10:42:07;;;;;;;2.17;0.80;;;;;;;17.64;57.21;98276.91;5091868;28;40315;-80
2023/03/23 10:44:36;;;;;;;0.87;0.87;;;;;;;17.81;56.67;98264.47;5075196;28;42042;-82
2023/03/23 10:47:07;;;;;;;0.80;0.80;;;;;;;18.07;56.51;98270.69;5092860;28;42418;-83
2023/03/23 10:49:39;;;;;;;1.07;0.90;;;;;;;18.37;55.27;98281.94;5091366;28;38916;-81
2023/03/23 10:52:19;;;;;;;1.20;0.80;;;;;;;19.21;54.06;98276.63;5089996;28;41898;-84
2023/03/23 10:54:53;;;;;;;1.00;0.80;;;;;;;20.08;50.73;98293.00;5075106;28;42811;-82
2023/03/23 10:57:24;;;;;;;1.23;0.70;;;;;;;20.91;48.65;98303.41;5088729;28;41963;-82
2023/03/23 10:59:52;;;;;;;0.83;0.67;;;;;;;21.46;46.09;98321.34;5075356;28;40174;-80
2023/03/23 11:02:25;;;;;;;1.10;0.70;;;;;;;22.08;45.36;98319.41;5093337;28;41945;-81
2023/03/23 11:05:00;;;;;;;0.70;0.70;;;;;;;21.97;45.67;98308.19;5074603;28;41930;-82
2023/03/23 11:07:30;;;;;;;1.10;0.80;;;;;;;21.92;44.96;98305.16;5090048;28;42845;-82
2023/03/23 11:10:09;;;;;;;1.37;1.00;;;;;;;22.00;44.87;98308.69;5092719;28;40491;-82
2023/03/23 11:12:37;;;;;;;1.00;0.70;;;;;;;22.15;44.72;98332.97;5076319;28;40824;-81
2023/03/23 11:15:22;;;;;;;0.90;0.73;;;;;;;22.19;43.28;98335.16;5093432;28;43707;-83
2023/03/23 11:17:59;;;;;;;0.90;0.90;;;;;;;22.11;43.90;98337.09;5076580;28;41217;-82
2023/03/23 11:20:28;;;;;;;0.80;0.80;;;;;;;22.01;44.45;98326.53;5075692;28;40212;-82
2023/03/23 11:22:56;;;;;;;0.87;0.77;;;;;;;21.91;43.62;98325.91;5093607;28;40942;-81
2023/03/23 11:25:30;;;;;;;1.17;0.80;;;;;;;21.98;43.71;98334.13;5076025;28;43205;-82
2023/03/23 11:27:58;;;;;;;1.23;0.70;;;;;;;21.76;43.92;98328.53;5093696;28;42325;-84
2023/03/23 11:30:28;;;;;;;1.80;0.90;;;;;;;21.50;43.88;98328.06;5093241;28;39771;-81
2023/03/23 11:33:03;;;;;;;1.10;0.90;;;;;;;21.10;44.15;98332.63;5093229;28;41825;-81
2023/03/23 11:35:31;;;;;;;4.60;0.80;;;;;;;21.17;44.44;98338.97;5091989;28;42901;-82
2023/03/23 11:38:00;;;;;;;1.33;0.90;;;;;;;21.25;44.39;98334.59;5094309;28;42129;-81
2023/03/23 11:40:29;;;;;;;1.10;0.77;;;;;;;21.29;44.92;98327.81;5076131;28;38959;-82
2023/03/23 11:43:02;;;;;;;0.80;0.80;;;;;;;21.04;44.25;98321.69;5094553;28;41889;-81
2023/03/23 11:45:35;;;;;;;1.10;0.70;;;;;;;20.70;44.57;98301.31;5093501;28;43839;-82
2023/03/23 11:48:16;;;;;;;0.70;0.70;;;;;;;20.50;45.23;98332.31;5076766;28;42235;-83
2023/03/23 11:50:52;;;;;;;0.80;0.80;;;;;;;20.15;45.92;98329.97;5092763;28;40927;-80
2023/03/23 11:53:30;;;;;;;0.70;0.70;;;;;;;19.89;46.31;98322.91;5090219;28;41913;-82
2023/03/23 11:56:07;;;;;;;0.83;0.83;;;;;;;19.80;46.56;98309.63;5076676;28;43177;-83
2023/03/23 11:58:36;;;;;;;0.87;0.60;;;;;;;19.84;47.42;98305.59;5091339;28;42409;-82
2023/03/23 12:01:08;;;;;;;1.57;1.10;;;;;;;19.95;47.43;98318.69;5092012;28;39617;-81
2023/03/23 12:04:05;;;;;;;1.47;1.00;;;;;;;19.79;47.64;98286.44;5092869;28;40800;-81
2023/03/23 12:06:43;;;;;;;1.43;1.33;;;;;;;19.64;48.55;98307.78;5092150;28;43602;-82
2023/03/23 12:09:28;;;;;;;1.47;1.03;;;;;;;19.48;48.97;98295.13;5075013;28;42246;-81
2023/03/23 12:12:08;;;;;;;1.20;1.10;;;;;;;19.34;48.86;98303.84;5093232;28;38844;-80